sensor_id;sensor_type;location;lat;lon;timestamp;P1;durP1;ratioP1;P2;durP2;ratioP2
41946;SDS011;27638;42.184;24.848;2023-12-04T00:00:40;10.07;;;6.05;;
41946;SDS011;27638;42.184;24.848;2023-12-04T00:03:06;11.90;;;6.10;;
41946;SDS011;27638;42.184;24.848;2023-12-04T00:05:31;9.05;;;6.10;;
41946;SDS011;27638;42.184;24.848;2023-12-04T00:07:56;8.32;;;6.18;;
41946;SDS011;27638;42.184;24.848;2023-12-04T00:10:22;11.95;;;6.13;;
41946;SDS011;27638;42.184;24.848;2023-12-04T00:12:47;10.43;;;6.47;;
41946;SDS011;27638;42.184;24.848;2023-12-04T00:15:13;9.95;;;5.75;;
41946;SDS011;27638;42.184;24.848;2023-12-04T00:17:38;10.68;;;6.10;;
41946;SDS011;27638;42.184;24.848;2023-12-04T00:20:06;9.13;;;5.90;;
41946;SDS011;27638;42.184;24.848;2023-12-04T00:22:34;10.13;;;6.82;;
41946;SDS011;27638;42.184;24.848;2023-12-04T00:24:59;10.55;;;5.93;;
41946;SDS011;27638;42.184;24.848;2023-12-04T00:27:24;11.73;;;6.50;;
41946;SDS011;27638;42.184;24.848;2023-12-04T00:29:52;12.88;;;6.57;;
41946;SDS011;27638;42.184;24.848;2023-12-04T00:32:18;10.38;;;5.70;;
41946;SDS011;27638;42.184;24.848;2023-12-04T00:34:43;8.77;;;5.47;;
41946;SDS011;27638;42.184;24.848;2023-12-04T00:37:08;9.88;;;6.25;;
41946;SDS011;27638;42.184;24.848;2023-12-04T00:39:34;9.88;;;6.30;;
41946;SDS011;27638;42.184;24.848;2023-12-04T00:41:59;11.18;;;6.50;;
41946;SDS011;27638;42.184;24.848;2023-12-04T00:44:25;11.90;;;6.60;;
41946;SDS011;27638;42.184;24.848;2023-12-04T00:46:50;10.50;;;6.13;;
41946;SDS011;27638;42.184;24.848;2023-12-04T00:49:15;9.07;;;5.97;;
41946;SDS011;27638;42.184;24.848;2023-12-04T00:51:41;8.93;;;5.88;;
41946;SDS011;27638;42.184;24.848;2023-12-04T00:54:07;10.50;;;6.43;;
41946;SDS011;27638;42.184;24.848;2023-12-04T00:56:32;10.13;;;5.15;;
41946;SDS011;27638;42.184;24.848;2023-12-04T00:58:57;10.35;;;5.95;;
41946;SDS011;27638;42.184;24.848;2023-12-04T01:01:23;8.95;;;6.03;;
41946;SDS011;27638;42.184;24.848;2023-12-04T01:03:48;8.25;;;5.50;;
41946;SDS011;27638;42.184;24.848;2023-12-04T01:06:23;9.73;;;6.13;;
41946;SDS011;27638;42.184;24.848;2023-12-04T01:08:49;9.10;;;5.57;;
41946;SDS011;27638;42.184;24.848;2023-12-04T01:11:15;8.13;;;4.72;;
41946;SDS011;27638;42.184;24.848;2023-12-04T01:13:42;8.10;;;5.20;;
41946;SDS011;27638;42.184;24.848;2023-12-04T01:16:07;9.23;;;5.93;;
41946;SDS011;27638;42.184;24.848;2023-12-04T01:18:34;8.48;;;4.72;;
41946;SDS011;27638;42.184;24.848;2023-12-04T01:21:00;10.07;;;6.32;;
41946;SDS011;27638;42.184;24.848;2023-12-04T01:23:25;11.10;;;5.97;;
41946;SDS011;27638;42.184;24.848;2023-12-04T01:25:51;11.65;;;5.60;;
41946;SDS011;27638;42.184;24.848;2023-12-04T01:28:16;9.80;;;5.70;;
41946;SDS011;27638;42.184;24.848;2023-12-04T01:30:41;9.00;;;5.65;;
41946;SDS011;27638;42.184;24.848;2023-12-04T01:33:07;11.63;;;5.75;;
41946;SDS011;27638;42.184;24.848;2023-12-04T01:35:33;10.88;;;5.65;;
41946;SDS011;27638;42.184;24.848;2023-12-04T01:37:58;10.10;;;5.25;;
41946;SDS011;27638;42.184;24.848;2023-12-04T01:40:24;8.95;;;5.53;;
41946;SDS011;27638;42.184;24.848;2023-12-04T01:42:49;9.55;;;5.20;;
41946;SDS011;27638;42.184;24.848;2023-12-04T01:45:15;10.63;;;6.00;;
41946;SDS011;27638;42.184;24.848;2023-12-04T01:47:41;9.68;;;5.70;;
41946;SDS011;27638;42.184;24.848;2023-12-04T01:50:07;9.82;;;5.43;;
41946;SDS011;27638;42.184;24.848;2023-12-04T01:52:34;6.93;;;4.68;;
41946;SDS011;27638;42.184;24.848;2023-12-04T01:55:00;8.82;;;4.78;;
41946;SDS011;27638;42.184;24.848;2023-12-04T01:57:26;7.70;;;4.88;;
41946;SDS011;27638;42.184;24.848;2023-12-04T01:59:51;7.85;;;4.70;;
41946;SDS011;27638;42.184;24.848;2023-12-04T02:02:17;8.80;;;4.82;;
41946;SDS011;27638;42.184;24.848;2023-12-04T02:04:42;7.72;;;5.10;;
41946;SDS011;27638;42.184;24.848;2023-12-04T02:07:08;7.63;;;4.88;;
41946;SDS011;27638;42.184;24.848;2023-12-04T02:09:37;7.50;;;5.30;;
41946;SDS011;27638;42.184;24.848;2023-12-04T02:12:03;7.60;;;4.88;;
41946;SDS011;27638;42.184;24.848;2023-12-04T02:14:28;9.70;;;5.03;;
41946;SDS011;27638;42.184;24.848;2023-12-04T02:16:54;9.25;;;5.45;;
41946;SDS011;27638;42.184;24.848;2023-12-04T02:19:22;8.05;;;5.63;;
41946;SDS011;27638;42.184;24.848;2023-12-04T02:21:48;8.77;;;4.80;;
41946;SDS011;27638;42.184;24.848;2023-12-04T02:24:14;7.60;;;4.65;;
41946;SDS011;27638;42.184;24.848;2023-12-04T02:26:42;10.15;;;5.50;;
41946;SDS011;27638;42.184;24.848;2023-12-04T02:29:13;8.73;;;5.03;;
41946;SDS011;27638;42.184;24.848;2023-12-04T02:31:44;8.32;;;4.80;;
41946;SDS011;27638;42.184;24.848;2023-12-04T02:34:10;8.73;;;5.53;;
41946;SDS011;27638;42.184;24.848;2023-12-04T02:36:38;7.18;;;4.53;;
41946;SDS011;27638;42.184;24.848;2023-12-04T02:39:05;8.48;;;5.40;;
41946;SDS011;27638;42.184;24.848;2023-12-04T02:41:31;11.13;;;5.50;;
41946;SDS011;27638;42.184;24.848;2023-12-04T02:43:56;7.47;;;5.00;;
41946;SDS011;27638;42.184;24.848;2023-12-04T02:46:22;8.35;;;5.05;;
41946;SDS011;27638;42.184;24.848;2023-12-04T02:48:48;7.60;;;4.75;;
41946;SDS011;27638;42.184;24.848;2023-12-04T02:51:13;8.88;;;4.70;;
41946;SDS011;27638;42.184;24.848;2023-12-04T02:53:38;7.63;;;4.63;;
41946;SDS011;27638;42.184;24.848;2023-12-04T02:56:04;6.72;;;4.63;;
41946;SDS011;27638;42.184;24.848;2023-12-04T02:58:30;9.65;;;5.05;;
41946;SDS011;27638;42.184;24.848;2023-12-04T03:00:55;6.55;;;4.05;;
41946;SDS011;27638;42.184;24.848;2023-12-04T03:03:22;6.63;;;3.95;;
41946;SDS011;27638;42.184;24.848;2023-12-04T03:05:48;8.23;;;4.45;;
41946;SDS011;27638;42.184;24.848;2023-12-04T03:08:13;8.82;;;4.30;;
41946;SDS011;27638;42.184;24.848;2023-12-04T03:10:38;6.78;;;4.03;;
41946;SDS011;27638;42.184;24.848;2023-12-04T03:13:04;6.32;;;4.25;;
41946;SDS011;27638;42.184;24.848;2023-12-04T03:15:29;7.63;;;5.25;;
41946;SDS011;27638;42.184;24.848;2023-12-04T03:17:55;8.10;;;5.18;;
41946;SDS011;27638;42.184;24.848;2023-12-04T03:20:23;10.63;;;5.55;;
41946;SDS011;27638;42.184;24.848;2023-12-04T03:22:48;7.40;;;4.93;;
41946;SDS011;27638;42.184;24.848;2023-12-04T03:25:14;7.63;;;5.82;;
41946;SDS011;27638;42.184;24.848;2023-12-04T03:27:39;9.02;;;5.72;;
41946;SDS011;27638;42.184;24.848;2023-12-04T03:30:04;7.88;;;5.65;;
41946;SDS011;27638;42.184;24.848;2023-12-04T03:32:30;8.98;;;5.75;;
41946;SDS011;27638;42.184;24.848;2023-12-04T03:34:56;8.73;;;5.63;;
41946;SDS011;27638;42.184;24.848;2023-12-04T03:37:21;9.00;;;5.88;;
41946;SDS011;27638;42.184;24.848;2023-12-04T03:39:47;8.45;;;5.90;;
41946;SDS011;27638;42.184;24.848;2023-12-04T03:42:12;9.27;;;5.82;;
41946;SDS011;27638;42.184;24.848;2023-12-04T03:44:38;8.95;;;5.28;;
41946;SDS011;27638;42.184;24.848;2023-12-04T03:47:03;10.77;;;5.28;;
41946;SDS011;27638;42.184;24.848;2023-12-04T03:49:28;7.35;;;5.30;;
41946;SDS011;27638;42.184;24.848;2023-12-04T03:51:54;11.10;;;6.35;;
41946;SDS011;27638;42.184;24.848;2023-12-04T03:54:19;7.80;;;4.97;;
41946;SDS011;27638;42.184;24.848;2023-12-04T03:56:45;6.70;;;5.30;;
41946;SDS011;27638;42.184;24.848;2023-12-04T03:59:11;7.95;;;5.20;;
41946;SDS011;27638;42.184;24.848;2023-12-04T04:01:37;10.10;;;5.65;;
41946;SDS011;27638;42.184;24.848;2023-12-04T04:04:03;9.50;;;5.88;;
41946;SDS011;27638;42.184;24.848;2023-12-04T04:06:28;11.02;;;5.32;;
41946;SDS011;27638;42.184;24.848;2023-12-04T04:08:54;8.57;;;5.05;;
41946;SDS011;27638;42.184;24.848;2023-12-04T04:11:20;7.45;;;5.40;;
41946;SDS011;27638;42.184;24.848;2023-12-04T04:13:45;10.25;;;6.20;;
41946;SDS011;27638;42.184;24.848;2023-12-04T04:16:19;8.65;;;5.30;;
41946;SDS011;27638;42.184;24.848;2023-12-04T04:18:45;7.05;;;5.50;;
41946;SDS011;27638;42.184;24.848;2023-12-04T04:21:10;6.63;;;4.75;;
41946;SDS011;27638;42.184;24.848;2023-12-04T04:23:35;10.88;;;6.00;;
41946;SDS011;27638;42.184;24.848;2023-12-04T04:26:01;9.15;;;4.90;;
41946;SDS011;27638;42.184;24.848;2023-12-04T04:28:27;7.95;;;4.78;;
41946;SDS011;27638;42.184;24.848;2023-12-04T04:30:52;8.93;;;5.68;;
41946;SDS011;27638;42.184;24.848;2023-12-04T04:33:18;8.73;;;5.45;;
41946;SDS011;27638;42.184;24.848;2023-12-04T04:35:43;10.02;;;5.50;;
41946;SDS011;27638;42.184;24.848;2023-12-04T04:38:09;8.27;;;4.85;;
41946;SDS011;27638;42.184;24.848;2023-12-04T04:40:34;12.38;;;6.20;;
41946;SDS011;27638;42.184;24.848;2023-12-04T04:43:00;9.13;;;5.95;;
41946;SDS011;27638;42.184;24.848;2023-12-04T04:45:25;8.75;;;5.43;;
41946;SDS011;27638;42.184;24.848;2023-12-04T04:47:51;7.68;;;5.22;;
41946;SDS011;27638;42.184;24.848;2023-12-04T04:50:16;7.13;;;5.13;;
41946;SDS011;27638;42.184;24.848;2023-12-04T04:52:41;7.93;;;5.07;;
41946;SDS011;27638;42.184;24.848;2023-12-04T04:55:07;10.75;;;5.85;;
41946;SDS011;27638;42.184;24.848;2023-12-04T04:57:33;10.93;;;6.28;;
41946;SDS011;27638;42.184;24.848;2023-12-04T04:59:58;7.63;;;5.03;;
41946;SDS011;27638;42.184;24.848;2023-12-04T05:02:23;10.63;;;5.85;;
41946;SDS011;27638;42.184;24.848;2023-12-04T05:04:49;8.57;;;6.22;;
41946;SDS011;27638;42.184;24.848;2023-12-04T05:07:14;10.27;;;6.65;;
41946;SDS011;27638;42.184;24.848;2023-12-04T05:09:40;10.65;;;5.90;;
41946;SDS011;27638;42.184;24.848;2023-12-04T05:12:05;8.43;;;5.78;;
41946;SDS011;27638;42.184;24.848;2023-12-04T05:14:31;10.05;;;6.93;;
41946;SDS011;27638;42.184;24.848;2023-12-04T05:16:56;11.10;;;7.40;;
41946;SDS011;27638;42.184;24.848;2023-12-04T05:19:21;13.52;;;8.02;;
41946;SDS011;27638;42.184;24.848;2023-12-04T05:21:47;11.30;;;6.45;;
41946;SDS011;27638;42.184;24.848;2023-12-04T05:24:12;12.43;;;6.65;;
41946;SDS011;27638;42.184;24.848;2023-12-04T05:26:38;14.77;;;8.18;;
41946;SDS011;27638;42.184;24.848;2023-12-04T05:29:03;11.15;;;6.72;;
41946;SDS011;27638;42.184;24.848;2023-12-04T05:31:28;12.48;;;6.97;;
41946;SDS011;27638;42.184;24.848;2023-12-04T05:33:54;11.88;;;7.43;;
41946;SDS011;27638;42.184;24.848;2023-12-04T05:36:19;11.48;;;6.55;;
41946;SDS011;27638;42.184;24.848;2023-12-04T05:38:45;12.57;;;7.30;;
41946;SDS011;27638;42.184;24.848;2023-12-04T05:41:10;10.55;;;7.80;;
41946;SDS011;27638;42.184;24.848;2023-12-04T05:43:35;14.35;;;7.63;;
41946;SDS011;27638;42.184;24.848;2023-12-04T05:46:01;13.90;;;7.20;;
41946;SDS011;27638;42.184;24.848;2023-12-04T05:48:26;10.73;;;6.53;;
41946;SDS011;27638;42.184;24.848;2023-12-04T05:50:52;10.38;;;6.93;;
41946;SDS011;27638;42.184;24.848;2023-12-04T05:53:17;11.98;;;6.97;;
41946;SDS011;27638;42.184;24.848;2023-12-04T05:55:43;12.60;;;6.93;;
41946;SDS011;27638;42.184;24.848;2023-12-04T05:58:11;9.85;;;6.47;;
41946;SDS011;27638;42.184;24.848;2023-12-04T06:00:36;8.85;;;5.50;;
41946;SDS011;27638;42.184;24.848;2023-12-04T06:03:02;13.27;;;6.55;;
41946;SDS011;27638;42.184;24.848;2023-12-04T06:05:27;9.32;;;5.65;;
41946;SDS011;27638;42.184;24.848;2023-12-04T06:07:53;10.30;;;6.35;;
41946;SDS011;27638;42.184;24.848;2023-12-04T06:10:18;11.23;;;6.30;;
41946;SDS011;27638;42.184;24.848;2023-12-04T06:12:44;8.43;;;5.65;;
41946;SDS011;27638;42.184;24.848;2023-12-04T06:15:09;8.00;;;6.10;;
41946;SDS011;27638;42.184;24.848;2023-12-04T06:17:35;9.50;;;6.78;;
41946;SDS011;27638;42.184;24.848;2023-12-04T06:20:00;8.90;;;6.13;;
41946;SDS011;27638;42.184;24.848;2023-12-04T06:22:26;12.23;;;6.60;;
41946;SDS011;27638;42.184;24.848;2023-12-04T06:24:52;9.30;;;6.22;;
41946;SDS011;27638;42.184;24.848;2023-12-04T06:27:18;11.02;;;5.82;;
41946;SDS011;27638;42.184;24.848;2023-12-04T06:29:47;10.32;;;6.65;;
41946;SDS011;27638;42.184;24.848;2023-12-04T06:32:13;8.52;;;6.30;;
41946;SDS011;27638;42.184;24.848;2023-12-04T06:34:39;7.40;;;6.00;;
41946;SDS011;27638;42.184;24.848;2023-12-04T06:37:09;8.70;;;6.65;;
41946;SDS011;27638;42.184;24.848;2023-12-04T06:39:36;8.45;;;5.57;;
41946;SDS011;27638;42.184;24.848;2023-12-04T06:42:03;7.93;;;5.47;;
41946;SDS011;27638;42.184;24.848;2023-12-04T06:44:32;9.68;;;6.28;;
41946;SDS011;27638;42.184;24.848;2023-12-04T06:46:59;9.63;;;5.40;;
41946;SDS011;27638;42.184;24.848;2023-12-04T06:49:27;9.30;;;6.00;;
41946;SDS011;27638;42.184;24.848;2023-12-04T06:51:55;7.85;;;5.70;;
41946;SDS011;27638;42.184;24.848;2023-12-04T06:54:21;8.55;;;5.20;;
41946;SDS011;27638;42.184;24.848;2023-12-04T06:56:46;10.02;;;6.55;;
41946;SDS011;27638;42.184;24.848;2023-12-04T06:59:11;9.18;;;6.30;;
41946;SDS011;27638;42.184;24.848;2023-12-04T07:01:37;9.63;;;5.80;;
41946;SDS011;27638;42.184;24.848;2023-12-04T07:04:02;9.93;;;6.30;;
41946;SDS011;27638;42.184;24.848;2023-12-04T07:06:34;8.65;;;5.70;;
41946;SDS011;27638;42.184;24.848;2023-12-04T07:09:02;7.38;;;5.53;;
41946;SDS011;27638;42.184;24.848;2023-12-04T07:11:28;8.57;;;5.47;;
41946;SDS011;27638;42.184;24.848;2023-12-04T07:13:54;7.50;;;5.10;;
41946;SDS011;27638;42.184;24.848;2023-12-04T07:16:20;10.30;;;5.97;;
41946;SDS011;27638;42.184;24.848;2023-12-04T07:18:45;11.15;;;6.20;;
41946;SDS011;27638;42.184;24.848;2023-12-04T07:21:11;7.40;;;5.22;;
41946;SDS011;27638;42.184;24.848;2023-12-04T07:23:37;11.48;;;6.18;;
41946;SDS011;27638;42.184;24.848;2023-12-04T07:26:02;10.30;;;6.78;;
41946;SDS011;27638;42.184;24.848;2023-12-04T07:28:28;11.88;;;6.63;;
41946;SDS011;27638;42.184;24.848;2023-12-04T07:30:54;10.65;;;6.40;;
41946;SDS011;27638;42.184;24.848;2023-12-04T07:33:20;8.88;;;5.60;;
41946;SDS011;27638;42.184;24.848;2023-12-04T07:35:45;10.57;;;6.47;;
41946;SDS011;27638;42.184;24.848;2023-12-04T07:38:11;11.13;;;6.30;;
41946;SDS011;27638;42.184;24.848;2023-12-04T07:40:37;12.70;;;7.72;;
41946;SDS011;27638;42.184;24.848;2023-12-04T07:43:03;11.20;;;6.70;;
41946;SDS011;27638;42.184;24.848;2023-12-04T07:45:28;11.68;;;6.10;;
41946;SDS011;27638;42.184;24.848;2023-12-04T07:47:54;10.98;;;6.38;;
41946;SDS011;27638;42.184;24.848;2023-12-04T07:50:19;11.25;;;6.78;;
41946;SDS011;27638;42.184;24.848;2023-12-04T07:52:44;9.57;;;6.18;;
41946;SDS011;27638;42.184;24.848;2023-12-04T07:55:10;11.73;;;6.20;;
41946;SDS011;27638;42.184;24.848;2023-12-04T07:57:35;10.38;;;6.00;;
41946;SDS011;27638;42.184;24.848;2023-12-04T08:00:01;11.20;;;6.38;;
41946;SDS011;27638;42.184;24.848;2023-12-04T08:02:26;11.27;;;5.65;;
41946;SDS011;27638;42.184;24.848;2023-12-04T08:04:51;10.90;;;5.40;;
41946;SDS011;27638;42.184;24.848;2023-12-04T08:07:18;10.35;;;6.45;;
41946;SDS011;27638;42.184;24.848;2023-12-04T08:09:43;10.30;;;6.78;;
41946;SDS011;27638;42.184;24.848;2023-12-04T08:12:09;9.93;;;6.20;;
41946;SDS011;27638;42.184;24.848;2023-12-04T08:14:34;10.77;;;6.07;;
41946;SDS011;27638;42.184;24.848;2023-12-04T08:16:59;13.25;;;6.68;;
41946;SDS011;27638;42.184;24.848;2023-12-04T08:19:25;10.10;;;5.90;;
41946;SDS011;27638;42.184;24.848;2023-12-04T08:21:50;11.63;;;6.40;;
41946;SDS011;27638;42.184;24.848;2023-12-04T08:24:16;8.75;;;5.10;;
41946;SDS011;27638;42.184;24.848;2023-12-04T08:26:43;8.75;;;5.22;;
41946;SDS011;27638;42.184;24.848;2023-12-04T08:29:11;8.05;;;5.13;;
41946;SDS011;27638;42.184;24.848;2023-12-04T08:31:36;14.07;;;7.68;;
41946;SDS011;27638;42.184;24.848;2023-12-04T08:34:02;10.10;;;5.93;;
41946;SDS011;27638;42.184;24.848;2023-12-04T08:36:27;12.13;;;6.97;;
41946;SDS011;27638;42.184;24.848;2023-12-04T08:38:52;11.27;;;6.45;;
41946;SDS011;27638;42.184;24.848;2023-12-04T08:41:18;7.07;;;4.90;;
41946;SDS011;27638;42.184;24.848;2023-12-04T08:43:43;8.20;;;5.18;;
41946;SDS011;27638;42.184;24.848;2023-12-04T08:46:12;10.07;;;6.00;;
41946;SDS011;27638;42.184;24.848;2023-12-04T08:48:40;8.63;;;5.25;;
41946;SDS011;27638;42.184;24.848;2023-12-04T08:51:06;8.40;;;4.78;;
41946;SDS011;27638;42.184;24.848;2023-12-04T08:53:33;7.78;;;5.18;;
41946;SDS011;27638;42.184;24.848;2023-12-04T08:55:58;9.23;;;5.57;;
41946;SDS011;27638;42.184;24.848;2023-12-04T08:58:24;9.05;;;5.75;;
41946;SDS011;27638;42.184;24.848;2023-12-04T09:00:49;9.82;;;5.25;;
41946;SDS011;27638;42.184;24.848;2023-12-04T09:03:15;7.72;;;4.85;;
41946;SDS011;27638;42.184;24.848;2023-12-04T09:05:40;8.55;;;4.93;;
41946;SDS011;27638;42.184;24.848;2023-12-04T09:08:05;11.20;;;6.90;;
41946;SDS011;27638;42.184;24.848;2023-12-04T09:10:32;7.70;;;4.93;;
41946;SDS011;27638;42.184;24.848;2023-12-04T09:12:57;10.25;;;6.00;;
41946;SDS011;27638;42.184;24.848;2023-12-04T09:15:22;11.35;;;6.10;;
41946;SDS011;27638;42.184;24.848;2023-12-04T09:17:48;7.72;;;6.15;;
41946;SDS011;27638;42.184;24.848;2023-12-04T09:20:13;15.32;;;8.05;;
41946;SDS011;27638;42.184;24.848;2023-12-04T09:22:39;9.68;;;6.80;;
41946;SDS011;27638;42.184;24.848;2023-12-04T09:25:05;8.60;;;5.95;;
41946;SDS011;27638;42.184;24.848;2023-12-04T09:27:32;13.35;;;6.85;;
41946;SDS011;27638;42.184;24.848;2023-12-04T09:29:58;8.05;;;5.57;;
41946;SDS011;27638;42.184;24.848;2023-12-04T09:32:23;11.75;;;6.30;;
41946;SDS011;27638;42.184;24.848;2023-12-04T09:34:49;10.75;;;6.10;;
41946;SDS011;27638;42.184;24.848;2023-12-04T09:37:15;11.13;;;6.22;;
41946;SDS011;27638;42.184;24.848;2023-12-04T09:39:40;10.77;;;5.93;;
41946;SDS011;27638;42.184;24.848;2023-12-04T09:42:06;8.15;;;5.20;;
41946;SDS011;27638;42.184;24.848;2023-12-04T09:44:32;11.10;;;6.72;;
41946;SDS011;27638;42.184;24.848;2023-12-04T09:46:59;9.35;;;5.53;;
41946;SDS011;27638;42.184;24.848;2023-12-04T09:49:26;14.77;;;8.13;;
41946;SDS011;27638;42.184;24.848;2023-12-04T09:51:53;11.73;;;6.70;;
41946;SDS011;27638;42.184;24.848;2023-12-04T09:54:19;9.80;;;6.00;;
41946;SDS011;27638;42.184;24.848;2023-12-04T09:56:44;11.80;;;6.82;;
41946;SDS011;27638;42.184;24.848;2023-12-04T09:59:10;11.15;;;6.45;;
41946;SDS011;27638;42.184;24.848;2023-12-04T10:01:40;9.68;;;6.03;;
41946;SDS011;27638;42.184;24.848;2023-12-04T10:04:06;14.63;;;7.95;;
41946;SDS011;27638;42.184;24.848;2023-12-04T10:06:33;15.75;;;7.97;;
41946;SDS011;27638;42.184;24.848;2023-12-04T10:08:59;9.60;;;7.07;;
41946;SDS011;27638;42.184;24.848;2023-12-04T10:11:24;7.82;;;5.50;;
41946;SDS011;27638;42.184;24.848;2023-12-04T10:13:51;9.25;;;5.78;;
41946;SDS011;27638;42.184;24.848;2023-12-04T10:16:33;9.45;;;6.00;;
41946;SDS011;27638;42.184;24.848;2023-12-04T10:21:48;11.10;;;6.07;;
41946;SDS011;27638;42.184;24.848;2023-12-04T10:27:09;9.80;;;5.90;;
41946;SDS011;27638;42.184;24.848;2023-12-04T10:29:47;10.13;;;5.63;;
41946;SDS011;27638;42.184;24.848;2023-12-04T10:32:17;8.50;;;6.50;;
41946;SDS011;27638;42.184;24.848;2023-12-04T10:34:49;11.93;;;6.72;;
41946;SDS011;27638;42.184;24.848;2023-12-04T10:37:15;10.30;;;5.97;;
41946;SDS011;27638;42.184;24.848;2023-12-04T10:39:45;7.03;;;5.13;;
41946;SDS011;27638;42.184;24.848;2023-12-04T10:42:15;10.57;;;5.63;;
41946;SDS011;27638;42.184;24.848;2023-12-04T10:47:23;9.57;;;5.88;;
41946;SDS011;27638;42.184;24.848;2023-12-04T10:49:52;10.60;;;6.82;;
41946;SDS011;27638;42.184;24.848;2023-12-04T10:52:18;6.85;;;4.88;;
41946;SDS011;27638;42.184;24.848;2023-12-04T10:54:49;9.50;;;5.20;;
41946;SDS011;27638;42.184;24.848;2023-12-04T10:57:24;7.05;;;4.93;;
41946;SDS011;27638;42.184;24.848;2023-12-04T10:59:54;8.30;;;5.40;;
41946;SDS011;27638;42.184;24.848;2023-12-04T11:02:23;7.18;;;4.53;;
41946;SDS011;27638;42.184;24.848;2023-12-04T11:04:52;7.80;;;4.85;;
41946;SDS011;27638;42.184;24.848;2023-12-04T11:07:20;8.85;;;5.05;;
41946;SDS011;27638;42.184;24.848;2023-12-04T11:09:47;7.20;;;4.70;;
41946;SDS011;27638;42.184;24.848;2023-12-04T11:12:16;7.07;;;4.65;;
41946;SDS011;27638;42.184;24.848;2023-12-04T11:14:46;6.85;;;5.00;;
41946;SDS011;27638;42.184;24.848;2023-12-04T11:17:18;9.27;;;5.53;;
41946;SDS011;27638;42.184;24.848;2023-12-04T11:22:45;9.18;;;5.88;;
41946;SDS011;27638;42.184;24.848;2023-12-04T11:25:12;12.50;;;9.07;;
41946;SDS011;27638;42.184;24.848;2023-12-04T11:27:39;10.52;;;8.73;;
41946;SDS011;27638;42.184;24.848;2023-12-04T11:30:06;7.45;;;5.20;;
41946;SDS011;27638;42.184;24.848;2023-12-04T11:32:43;9.00;;;6.70;;
41946;SDS011;27638;42.184;24.848;2023-12-04T11:35:13;8.13;;;4.82;;
41946;SDS011;27638;42.184;24.848;2023-12-04T11:37:40;7.00;;;4.50;;
41946;SDS011;27638;42.184;24.848;2023-12-04T11:40:10;7.25;;;5.55;;
41946;SDS011;27638;42.184;24.848;2023-12-04T11:42:37;12.20;;;6.80;;
41946;SDS011;27638;42.184;24.848;2023-12-04T11:45:04;11.35;;;6.22;;
41946;SDS011;27638;42.184;24.848;2023-12-04T11:47:30;11.98;;;6.85;;
41946;SDS011;27638;42.184;24.848;2023-12-04T11:50:13;7.38;;;4.80;;
41946;SDS011;27638;42.184;24.848;2023-12-04T11:52:39;13.18;;;6.75;;
41946;SDS011;27638;42.184;24.848;2023-12-04T11:55:04;9.45;;;5.45;;
41946;SDS011;27638;42.184;24.848;2023-12-04T11:57:40;9.10;;;5.05;;
41946;SDS011;27638;42.184;24.848;2023-12-04T12:05:19;8.45;;;5.88;;
41946;SDS011;27638;42.184;24.848;2023-12-04T12:07:46;7.25;;;4.93;;
41946;SDS011;27638;42.184;24.848;2023-12-04T12:10:12;7.85;;;4.60;;
41946;SDS011;27638;42.184;24.848;2023-12-04T12:12:41;9.00;;;5.22;;
41946;SDS011;27638;42.184;24.848;2023-12-04T12:15:08;8.93;;;5.30;;
41946;SDS011;27638;42.184;24.848;2023-12-04T12:17:35;9.20;;;5.47;;
41946;SDS011;27638;42.184;24.848;2023-12-04T12:20:00;12.65;;;5.53;;
41946;SDS011;27638;42.184;24.848;2023-12-04T12:22:26;7.45;;;5.03;;
41946;SDS011;27638;42.184;24.848;2023-12-04T12:24:51;11.43;;;6.47;;
41946;SDS011;27638;42.184;24.848;2023-12-04T12:27:17;11.93;;;6.85;;
41946;SDS011;27638;42.184;24.848;2023-12-04T12:29:42;11.80;;;7.28;;
41946;SDS011;27638;42.184;24.848;2023-12-04T12:32:08;10.23;;;5.95;;
41946;SDS011;27638;42.184;24.848;2023-12-04T12:34:34;11.55;;;6.22;;
41946;SDS011;27638;42.184;24.848;2023-12-04T12:37:03;13.18;;;6.80;;
41946;SDS011;27638;42.184;24.848;2023-12-04T12:39:31;12.90;;;7.07;;
41946;SDS011;27638;42.184;24.848;2023-12-04T12:41:57;10.30;;;6.20;;
41946;SDS011;27638;42.184;24.848;2023-12-04T12:44:22;12.80;;;6.97;;
41946;SDS011;27638;42.184;24.848;2023-12-04T12:46:48;13.07;;;6.70;;
41946;SDS011;27638;42.184;24.848;2023-12-04T12:49:17;12.35;;;6.60;;
41946;SDS011;27638;42.184;24.848;2023-12-04T12:51:44;12.70;;;6.20;;
41946;SDS011;27638;42.184;24.848;2023-12-04T12:54:10;9.35;;;6.07;;
41946;SDS011;27638;42.184;24.848;2023-12-04T12:56:36;11.00;;;7.28;;
41946;SDS011;27638;42.184;24.848;2023-12-04T12:59:01;14.93;;;8.55;;
41946;SDS011;27638;42.184;24.848;2023-12-04T13:01:30;14.43;;;7.60;;
41946;SDS011;27638;42.184;24.848;2023-12-04T13:03:56;14.95;;;8.43;;
41946;SDS011;27638;42.184;24.848;2023-12-04T13:06:22;15.88;;;7.72;;
41946;SDS011;27638;42.184;24.848;2023-12-04T13:08:47;14.40;;;8.73;;
41946;SDS011;27638;42.184;24.848;2023-12-04T13:11:13;12.52;;;7.45;;
41946;SDS011;27638;42.184;24.848;2023-12-04T13:13:38;16.58;;;8.88;;
41946;SDS011;27638;42.184;24.848;2023-12-04T13:16:05;16.70;;;9.35;;
41946;SDS011;27638;42.184;24.848;2023-12-04T13:18:31;17.58;;;9.88;;
41946;SDS011;27638;42.184;24.848;2023-12-04T13:21:00;16.20;;;9.60;;
41946;SDS011;27638;42.184;24.848;2023-12-04T13:23:26;17.63;;;9.75;;
41946;SDS011;27638;42.184;24.848;2023-12-04T13:25:51;15.93;;;8.85;;
41946;SDS011;27638;42.184;24.848;2023-12-04T13:28:19;16.38;;;9.77;;
41946;SDS011;27638;42.184;24.848;2023-12-04T13:30:45;17.48;;;10.13;;
41946;SDS011;27638;42.184;24.848;2023-12-04T13:33:10;15.38;;;8.80;;
41946;SDS011;27638;42.184;24.848;2023-12-04T13:35:36;18.25;;;10.05;;
41946;SDS011;27638;42.184;24.848;2023-12-04T13:38:01;17.10;;;9.73;;
41946;SDS011;27638;42.184;24.848;2023-12-04T13:40:27;17.83;;;8.35;;
41946;SDS011;27638;42.184;24.848;2023-12-04T13:42:57;17.98;;;10.27;;
41946;SDS011;27638;42.184;24.848;2023-12-04T13:48:06;18.63;;;10.50;;
41946;SDS011;27638;42.184;24.848;2023-12-04T13:50:32;21.73;;;10.23;;
41946;SDS011;27638;42.184;24.848;2023-12-04T13:52:57;20.55;;;10.40;;
41946;SDS011;27638;42.184;24.848;2023-12-04T13:55:23;16.60;;;9.45;;
41946;SDS011;27638;42.184;24.848;2023-12-04T13:58:01;19.27;;;11.20;;
41946;SDS011;27638;42.184;24.848;2023-12-04T14:00:27;20.13;;;10.45;;
41946;SDS011;27638;42.184;24.848;2023-12-04T14:02:52;20.98;;;11.50;;
41946;SDS011;27638;42.184;24.848;2023-12-04T14:05:21;15.40;;;9.23;;
41946;SDS011;27638;42.184;24.848;2023-12-04T14:07:47;17.98;;;9.10;;
41946;SDS011;27638;42.184;24.848;2023-12-04T14:10:13;20.65;;;10.93;;
41946;SDS011;27638;42.184;24.848;2023-12-04T14:12:39;16.05;;;8.90;;
41946;SDS011;27638;42.184;24.848;2023-12-04T14:15:05;19.30;;;10.65;;
41946;SDS011;27638;42.184;24.848;2023-12-04T14:17:31;14.38;;;7.30;;
41946;SDS011;27638;42.184;24.848;2023-12-04T14:19:56;14.40;;;8.73;;
41946;SDS011;27638;42.184;24.848;2023-12-04T14:22:22;16.15;;;8.13;;
41946;SDS011;27638;42.184;24.848;2023-12-04T14:24:47;15.82;;;8.70;;
41946;SDS011;27638;42.184;24.848;2023-12-04T14:27:13;20.13;;;10.70;;
41946;SDS011;27638;42.184;24.848;2023-12-04T14:29:39;17.33;;;9.88;;
41946;SDS011;27638;42.184;24.848;2023-12-04T14:32:05;23.70;;;10.60;;
41946;SDS011;27638;42.184;24.848;2023-12-04T14:34:31;19.40;;;10.48;;
41946;SDS011;27638;42.184;24.848;2023-12-04T14:36:57;17.02;;;8.88;;
41946;SDS011;27638;42.184;24.848;2023-12-04T14:39:23;14.80;;;9.10;;
41946;SDS011;27638;42.184;24.848;2023-12-04T14:41:49;17.38;;;9.60;;